Flight Track Log - Related Links

Times and Time Zones

All times are in EDT time to prevent confusion due to time zone crossing. See the UAL1636 flight status page for this flight to view local times or setup timezone preferences in your user account.

Time Position Orientation Groundspeed Altitude Reporting Facility
EDT Latitude Longitude Course Direction KTS MPH feet Rate Location/Type
Mon 07:32:52 AM 28.4333 -81.3167 270° West 167 192 800  Level Orlando TRACON
Mon 07:33:40 AM 28.4833 -81.3167 360° North 177 204 3,100 2,421 Climbing Orlando TRACON
Mon 07:34:46 AM 28.5500 -81.3167 360° North 273 314 5,400 2,667 Climbing Orlando TRACON
Mon 07:35:00 AM 28.4167 -81.6548 270° West  Level FlightAware Approximate
Mon 07:35:46 AM 28.5667 -81.4000 283° West 272 313 8,700  Level Orlando TRACON
Mon 07:36:00 AM 28.4167 -81.7731 270° West  Level FlightAware Approximate
Mon 07:37:00 AM 28.4167 -81.8913 270° West  Level FlightAware Approximate
Mon 07:38:00 AM 28.4167 -82.0096 270° West  Level FlightAware Approximate
Mon 07:38:08 AM 28.5506 -81.6258 265° West 337 388 14,000  Level Jacksonville Center
Mon 07:39:08 AM 28.5433 -81.7417 266° West 357 411 17,100 2,650 Climbing Jacksonville Center
Mon 07:40:08 AM 28.5631 -81.8572 281° West 368 423 19,300 2,500 Climbing Jacksonville Center
Mon 07:41:08 AM 28.5892 -81.9753 284° West 376 433 22,100 2,550 Climbing Jacksonville Center
Mon 07:42:08 AM 28.6483 -82.0883 301° West 381 438 24,400 1,900 Climbing Jacksonville Center
Mon 07:43:08 AM 28.6947 -82.2061 294° West 392 451 25,900 1,450 Climbing Jacksonville Center
Mon 07:44:08 AM 28.7433 -82.3242 295° West 404 465 27,300 1,400 Climbing Jacksonville Center
Mon 07:45:08 AM 28.8086 -82.4328 304° West 404 465 28,700 1,350 Climbing Jacksonville Center
Mon 07:46:08 AM 28.9133 -82.5153 325° Northwest 428 493 30,000 1,350 Climbing Jacksonville Center
Mon 07:47:08 AM 29.0178 -82.5933 327° Northwest 438 504 31,400 1,400 Climbing Jacksonville Center
Mon 07:48:08 AM 29.1244 -82.6764 326° Northwest 452 520 32,800 1,600 Climbing Jacksonville Center
Mon 07:49:08 AM 29.2267 -82.7544 326° Northwest 457 526 34,600 1,550 Climbing Jacksonville Center
Mon 07:50:08 AM 29.3269 -82.8353 325° Northwest 446 513 35,900 1,200 Climbing Jacksonville Center
Mon 07:51:08 AM 29.4231 -82.9117 325° Northwest 435 501 37,000 1,050 Climbing Jacksonville Center
Mon 07:52:08 AM 29.5150 -82.9833 326° Northwest 439 505 38,000 500 Climbing Jacksonville Center
Mon 07:53:08 AM 29.6131 -83.0575 327° Northwest 434 499 38,000 -50 Level Jacksonville Center
Mon 07:54:08 AM 29.7236 -83.1103 337° Northwest 428 493 37,900  Descending Jacksonville Center
Mon 07:55:08 AM 29.8361 -83.1608 339° North 426 490 38,000  Climbing Jacksonville Center
Mon 07:56:08 AM 29.9447 -83.2114 338° Northwest 426 490 37,900  Descending Jacksonville Center
Mon 07:57:08 AM 30.0592 -83.2644 338° Northwest 426 490 38,000 50 Climbing Jacksonville Center
Mon 07:58:08 AM 30.1678 -83.3131 339° North 426 490 38,000 -50 Level Jacksonville Center
Mon 07:59:08 AM 30.2822 -83.3642 339° North 431 496 37,900  Descending Jacksonville Center
Mon 08:00:08 AM 30.3928 -83.4175 337° Northwest 431 496 38,000 50 Climbing Jacksonville Center
Mon 08:01:08 AM 30.5053 -83.4714 338° Northwest 431 496 38,000  Level Jacksonville Center
Mon 08:02:08 AM 30.6200 -83.5250 338° Northwest 431 496 38,000  Level Jacksonville Center
Mon 08:03:08 AM 30.7281 -83.5789 337° Northwest 431 496 38,000  Level Jacksonville Center
Mon 08:04:08 AM 30.8428 -83.6331 338° Northwest 431 496 38,000  Level Jacksonville Center
Mon 08:05:08 AM 30.9553 -83.6872 338° Northwest 436 502 38,000  Level Jacksonville Center
Mon 08:06:08 AM 31.0697 -83.7414 338° Northwest 436 502 38,000  Level Jacksonville Center
Mon 08:07:08 AM 31.1842 -83.7958 338° Northwest 436 502 38,000  Level Jacksonville Center
Mon 08:08:08 AM 31.2964 -83.8506 337° Northwest 431 496 38,000  Level Jacksonville Center
Mon 08:10:29 AM 31.5756 -83.9731 340° North 446 513 38,000  Level Atlanta Center
Mon 08:11:29 AM 31.6964 -84.0022 348° North 441 507 38,000  Level Atlanta Center
Mon 08:12:29 AM 31.7947 -84.0217 350° North 441 507 38,000  Level Atlanta Center
Mon 08:13:29 AM 31.9283 -84.0511 349° North 441 507 38,000  Level Atlanta Center
Mon 08:14:29 AM 32.0472 -84.0756 350° North 441 507 38,000  Level Atlanta Center
Mon 08:15:29 AM 32.1683 -84.1025 349° North 441 507 38,000  Level Atlanta Center
Mon 08:16:29 AM 32.2933 -84.1322 349° North 441 507 38,000  Level Atlanta Center
Mon 08:17:29 AM 32.4144 -84.1594 349° North 446 513 38,000  Level Atlanta Center
Mon 08:18:29 AM 32.5375 -84.1867 349° North 446 513 38,000  Level Atlanta Center
Mon 08:19:29 AM 32.6608 -84.2164 349° North 446 513 38,000  Level Atlanta Center
Mon 08:20:29 AM 32.7858 -84.2464 349° North 446 513 38,000  Level Atlanta Center
Mon 08:21:29 AM 32.9111 -84.2714 350° North 451 519 38,000  Level Atlanta Center
Mon 08:22:29 AM 33.0364 -84.3014 349° North 451 519 38,000  Level Atlanta Center
Mon 08:23:29 AM 33.1614 -84.3317 349° North 451 519 38,000  Level Atlanta Center
Mon 08:24:29 AM 33.2969 -84.3619 349° North 451 519 38,000  Level Atlanta Center
Mon 08:25:29 AM 33.4242 -84.3897 350° North 451 519 38,000  Level Atlanta Center
Mon 08:26:29 AM 33.5494 -84.4203 349° North 451 519 38,000  Level Atlanta Center
Mon 08:27:29 AM 33.6725 -84.4506 348° North 451 519 38,000  Level Atlanta Center
Mon 08:28:29 AM 33.7997 -84.4814 349° North 457 526 38,000  Level Atlanta Center
Mon 08:29:29 AM 33.9311 -84.5119 349° North 457 526 38,000  Level Atlanta Center
Mon 08:30:29 AM 34.0478 -84.5378 350° North 467 537 38,000  Level Atlanta Center
Mon 08:31:29 AM 34.1772 -84.5686 349° North 467 537 38,000  Level Atlanta Center
Mon 08:32:29 AM 34.3044 -84.5969 350° North 467 537 38,000  Level Atlanta Center
Mon 08:33:29 AM 34.4483 -84.6106 356° North 467 537 38,000  Level Atlanta Center
Mon 08:34:29 AM 34.5778 -84.6192 357° North 461 531 38,000  Level Atlanta Center
Mon 08:35:29 AM 34.6925 -84.6300 356° North 456 525 38,000  Level Atlanta Center
Mon 08:36:29 AM 34.8217 -84.6408 356° North 456 525 38,000  Level Atlanta Center
Mon 08:37:29 AM 34.9531 -84.6544 355° North 462 532 38,000  Level Atlanta Center
Mon 08:38:29 AM 35.0844 -84.6658 356° North 462 532 38,000  Level Atlanta Center
Mon 08:39:29 AM 35.2158 -84.6769 356° North 462 532 38,000  Level Atlanta Center
Mon 08:40:29 AM 35.3472 -84.6881 356° North 462 532 38,000  Level Atlanta Center
Mon 08:41:29 AM 35.4786 -84.6992 356° North 462 532 38,000  Level Atlanta Center
Mon 08:42:29 AM 35.6081 -84.7106 356° North 462 532 38,000  Level Atlanta Center
Mon 08:43:29 AM 35.7394 -84.7192 357° North 462 532 38,000  Level Atlanta Center
Mon 08:44:29 AM 35.8686 -84.7281 357° North 462 532 38,000  Level Atlanta Center
Mon 08:46:30 AM 36.1233 -84.7542 355° North 467 537 38,000  Level Indianapolis Center
Mon 08:47:31 AM 36.2808 -84.7675 356° North 473 544 38,000  Level Indianapolis Center
Mon 08:48:33 AM 36.4122 -84.7783 356° North 473 544 38,000  Level Indianapolis Center
Mon 08:49:34 AM 36.5467 -84.7442 12° North 493 567 38,000  Level Indianapolis Center
Mon 08:50:36 AM 36.6817 -84.7031 14° North 498 573 38,000  Level Indianapolis Center
Mon 08:51:38 AM 36.8161 -84.6636 13° North 497 572 38,000  Level Indianapolis Center
Mon 08:52:39 AM 36.9511 -84.6239 13° North 498 573 38,000  Level Indianapolis Center
Mon 08:53:41 AM 37.0889 -84.5825 13° North 497 572 38,000  Level Indianapolis Center
Mon 08:54:43 AM 37.2219 -84.5431 13° North 489 563 38,000  Level Indianapolis Center
Mon 08:55:44 AM 37.3786 -84.4969 13° North 491 565 38,000  Level Indianapolis Center
Mon 08:56:46 AM 37.5106 -84.4658 11° North 484 557 38,000  Level Indianapolis Center
Mon 08:57:47 AM 37.6361 -84.5044 346° North 467 537 38,000  Level Indianapolis Center
Mon 08:58:49 AM 37.7583 -84.5539 342° North 459 528 38,000  Level Indianapolis Center
Mon 08:59:50 AM 37.8797 -84.6022 343° North 457 526 38,000 -488 Level Indianapolis Center
Mon 09:00:52 AM 38.0019 -84.6519 342° North 459 528 37,000 -919 Descending Indianapolis Center
Mon 09:01:54 AM 38.1225 -84.6967 344° North 452 520 36,100 -488 Descending Indianapolis Center
Mon 09:02:55 AM 38.2403 -84.7447 342° North 444 511 36,000 -49 Descending Indianapolis Center
Mon 09:03:57 AM 38.3778 -84.8000 343° North 441 507 36,000  Level Indianapolis Center
Mon 09:04:59 AM 38.4942 -84.8483 342° North 440 506 36,000  Level Indianapolis Center
Mon 09:06:00 AM 38.6128 -84.8944 343° North 442 509 36,000  Level Indianapolis Center
Mon 09:07:02 AM 38.7258 -84.9414 342° North 441 507 36,000 -146 Level Indianapolis Center
Mon 09:08:03 AM 38.8436 -84.9883 343° North 441 507 35,700 -634 Descending Indianapolis Center
Mon 09:09:05 AM 38.9625 -85.0383 342° North 446 513 34,700 -823 Descending Indianapolis Center
Mon 09:10:07 AM 39.0817 -85.0864 343° North 447 514 34,000 -390 Descending Indianapolis Center
Mon 09:11:08 AM 39.2178 -85.1417 343° North 445 512 33,900 -1,024 Descending Indianapolis Center
Mon 09:12:10 AM 39.3350 -85.1911 342° North 440 506 31,900 -1,887 Descending Indianapolis Center
Mon 09:13:12 AM 39.4603 -85.2425 342° North 458 527 30,000 -1,854 Descending Indianapolis Center
Mon 09:14:13 AM 39.5864 -85.2964 342° North 468 539 28,100 -1,024 Descending Indianapolis Center
Mon 09:15:15 AM 39.7083 -85.3467 342° North 460 529 27,900 -97 Descending Indianapolis Center
Mon 09:16:17 AM 39.8336 -85.3983 342° North 463 533 27,900 49 Level Indianapolis Center
Mon 09:17:18 AM 39.9581 -85.4514 342° North 464 534 28,000 -293 Climbing Indianapolis Center
Mon 09:18:20 AM 40.0808 -85.5036 342° North 460 529 27,300 -848 Descending Indianapolis Center
Mon 09:18:50 AM 40.1508 -85.5336 342° North 452 520 26,700 -1,043 Descending Chicago Center
Mon 09:19:52 AM 40.2653 -85.5803 343° North 437 503 25,700 -968 Descending Chicago Center
Mon 09:20:54 AM 40.3772 -85.6278 342° North 427 491 24,700 -968 Descending Chicago Center
Mon 09:21:56 AM 40.4864 -85.6775 341° North 419 482 23,700 -823 Descending Chicago Center
Mon 09:22:58 AM 40.5589 -85.7883 311° West 400 460 23,000 -339 Descending Chicago Center
Mon 09:24:00 AM 40.6278 -85.9036 308° West 400 460 23,000  Level Chicago Center
Mon 09:25:02 AM 40.7083 -86.0436 307° West 400 460 23,000  Level Chicago Center
Mon 09:26:04 AM 40.7764 -86.1608 308° West 402 463 23,000  Level Chicago Center
Mon 09:27:06 AM 40.8447 -86.2775 308° West 403 464 23,000 -97 Level Chicago Center
Mon 09:28:08 AM 40.9119 -86.3956 307° West 402 463 22,800 -532 Descending Chicago Center
Mon 09:29:10 AM 40.9792 -86.5128 307° West 400 460 21,900 -912 Descending Chicago Center
Mon 09:30:13 AM 41.0450 -86.6306 307° West 398 458 20,900 -1,008 Descending Chicago Center
Mon 09:31:15 AM 41.1133 -86.7506 307° West 389 448 19,800 -1,548 Descending Chicago Center
Mon 09:32:17 AM 41.1911 -86.8856 307° West 385 443 17,700 -2,129 Descending Chicago Center
Mon 09:33:19 AM 41.2525 -86.9944 307° West 372 428 15,400 -2,226 Descending Chicago Center
Mon 09:34:21 AM 41.3119 -87.1003 307° West 363 418 13,100 -1,984 Descending Chicago Center
Mon 09:35:23 AM 41.3706 -87.2033 307° West 356 410 11,300 -1,248 Descending Chicago Center
Mon 09:36:02 AM 41.4333 -87.2667 323° Northwest 348 400 11,000 -645 Descending Chicago TRACON
Mon 09:36:56 AM 41.4833 -87.3500 309° West 342 394 10,300 -494 Descending Chicago TRACON
Mon 09:37:27 AM 41.5269 -87.3867 328° Northwest 342 394 10,300  Level Chicago Center
Mon 09:38:29 AM 41.5986 -87.4633 321° Northwest 336 387 10,300  Level Chicago Center
Mon 09:39:31 AM 41.6703 -87.5439 320° Northwest 338 389 10,300  Level Chicago Center
Mon 09:40:33 AM 41.7417 -87.6253 320° Northwest 339 390 10,300  Level Chicago Center
Mon 09:40:57 AM 41.7833 -87.6667 323° Northwest 343 395 10,300 -214 Level Chicago TRACON
Mon 09:41:57 AM 41.8333 -87.7667 304° West 299 344 10,000 -900 Descending Chicago TRACON
Mon 09:42:57 AM 41.8667 -87.8500 298° West 285 328 8,500 -1,364 Descending Chicago TRACON
Mon 09:44:09 AM 41.9167 -87.9500 304° West 289 333 7,000 -800 Descending Chicago TRACON
Mon 09:44:57 AM 41.9500 -88.0333 298° West 276 318 6,900 -474 Descending Chicago TRACON
Mon 09:46:03 AM 42.0000 -88.1000 315° West 231 266 6,100 -1,364 Descending Chicago TRACON
Mon 09:47:09 AM 42.0667 -88.1167 349° North 234 269 3,900 -2,000 Descending Chicago TRACON

Login

Don't have an account? Register now (free) for customized features, flight alerts, and more!